Time;durP1;ratioP1;P1;durP2;ratioP2;P2;SDS_P1;SDS_P2;PMS_P1;PMS_P2;Temp;Humidity;BMP_temperature;BMP_pressure;BME280_temperature;BME280_humidity;BME280_pressure;Samples;Min_cycle;Max_cycle;Signal;HPM_P1;HPM_P2
2022/05/30 00:02:14;;;;;;;0.20;0.20;;;;;;;;;;5054712;28;20163;-72
2022/05/30 00:04:42;;;;;;;0.60;0.45;;;;;;;;;;5053902;28;20056;-67
2022/05/30 00:07:10;;;;;;;0.20;0.20;;;;;;;;;;5047435;28;20073;-66
2022/05/30 00:09:39;;;;;;;0.10;0.10;;;;;;;;;;5051372;28;20396;-67
2022/05/30 00:12:09;;;;;;;0.15;0.15;;;;;;;;;;5049476;28;20136;-73
2022/05/30 00:14:37;;;;;;;0.35;0.30;;;;;;;;;;5049094;28;20142;-67
2022/05/30 00:17:05;;;;;;;0.10;0.10;;;;;;;;;;5052141;28;20496;-66
2022/05/30 00:19:37;;;;;;;0.20;0.20;;;;;;;;;;5050534;28;20539;-68
2022/05/30 00:22:05;;;;;;;0.30;0.30;;;;;;;;;;5053248;28;20140;-66
2022/05/30 00:24:34;;;;;;;0.10;0.10;;;;;;;;;;5047270;28;20132;-66
2022/05/30 00:27:03;;;;;;;0.40;0.40;;;;;;;;;;5048014;28;20120;-66
2022/05/30 00:29:33;;;;;;;0.40;0.40;;;;;;;;;;5050545;28;20100;-66
2022/05/30 00:32:01;;;;;;;0.10;0.10;;;;;;;;;;5048353;28;20120;-67
2022/05/30 00:34:30;;;;;;;0.10;0.10;;;;;;;;;;5043998;28;20488;-67
2022/05/30 00:36:58;;;;;;;0.38;0.38;;;;;;;;;;5047477;28;20085;-70
2022/05/30 00:39:26;;;;;;;0.10;0.10;;;;;;;;;;5048362;28;20127;-67
2022/05/30 00:42:06;;;;;;;0.50;0.50;;;;;;;;;;5050403;28;20124;-66
2022/05/30 00:44:36;;;;;;;0.25;0.20;;;;;;;;;;5045751;28;20120;-66
2022/05/30 00:47:04;;;;;;;0.28;0.28;;;;;;;;;;5050408;28;20076;-67
2022/05/30 00:49:33;;;;;;;0.20;0.20;;;;;;;;;;5048415;28;20172;-66
2022/05/30 00:52:05;;;;;;;0.30;0.30;;;;;;;;;;5050580;28;20103;-66
2022/05/30 00:54:35;;;;;;;0.30;0.30;;;;;;;;;;5050387;28;20073;-66
2022/05/30 00:57:20;;;;;;;0.10;0.10;;;;;;;;;;5046921;28;20140;-67
2022/05/30 00:59:51;;;;;;;0.20;0.20;;;;;;;;;;5045459;28;20041;-66
2022/05/30 01:02:20;;;;;;;0.10;0.10;;;;;;;;;;5050104;28;20049;-68
2022/05/30 01:07:35;;;;;;;0.28;0.28;;;;;;;;;;5037900;28;20472;-67
2022/05/30 01:10:06;;;;;;;0.15;0.15;;;;;;;;;;5048978;28;20131;-67
2022/05/30 01:12:37;;;;;;;0.45;0.30;;;;;;;;;;5048505;28;20691;-67
2022/05/30 01:15:09;;;;;;;0.10;0.10;;;;;;;;;;5042422;28;20153;-67
2022/05/30 01:17:40;;;;;;;0.10;0.10;;;;;;;;;;5042509;28;20080;-67
2022/05/30 01:20:13;;;;;;;0.10;0.10;;;;;;;;;;5051175;28;20132;-68
2022/05/30 01:22:56;;;;;;;0.10;0.10;;;;;;;;;;5037437;28;20124;-66
2022/05/30 01:25:31;;;;;;;0.35;0.15;;;;;;;;;;5037024;28;20057;-67
2022/05/30 01:28:04;;;;;;;1.50;1.40;;;;;;;;;;5038034;28;20087;-66
2022/05/30 01:30:35;;;;;;;0.10;0.10;;;;;;;;;;5046483;28;20083;-66
2022/05/30 01:33:04;;;;;;;0.10;0.10;;;;;;;;;;5044151;28;20157;-66
2022/05/30 01:35:33;;;;;;;0.20;0.20;;;;;;;;;;5044698;28;20099;-68
2022/05/30 01:38:01;;;;;;;0.20;0.20;;;;;;;;;;5047073;28;20069;-66
2022/05/30 01:40:29;;;;;;;0.57;0.57;;;;;;;;;;5047708;28;20124;-66
2022/05/30 01:42:58;;;;;;;0.13;0.13;;;;;;;;;;5046665;28;20049;-67
2022/05/30 01:45:27;;;;;;;0.20;0.20;;;;;;;;;;5046785;28;20095;-71
2022/05/30 01:47:56;;;;;;;0.10;0.10;;;;;;;;;;5051332;28;20103;-67
2022/05/30 01:50:26;;;;;;;0.20;0.20;;;;;;;;;;5051755;28;20140;-72
2022/05/30 01:52:54;;;;;;;0.13;0.13;;;;;;;;;;5048168;28;20117;-68
2022/05/30 01:55:22;;;;;;;0.20;0.20;;;;;;;;;;5050474;28;20087;-69
2022/05/30 01:57:51;;;;;;;1.23;1.13;;;;;;;;;;5049137;28;20045;-67
2022/05/30 02:00:22;;;;;;;0.30;0.30;;;;;;;;;;5052341;28;20061;-66
2022/05/30 02:02:50;;;;;;;0.17;0.17;;;;;;;;;;5050009;28;20098;-72
2022/05/30 02:05:20;;;;;;;0.30;0.30;;;;;;;;;;5052726;28;20133;-67
2022/05/30 02:07:49;;;;;;;0.15;0.15;;;;;;;;;;5043947;28;20140;-66
2022/05/30 02:10:17;;;;;;;0.10;0.10;;;;;;;;;;5048372;28;20144;-67
2022/05/30 02:12:46;;;;;;;0.20;0.20;;;;;;;;;;5046437;28;20439;-67
2022/05/30 02:15:14;;;;;;;0.10;0.10;;;;;;;;;;5048347;28;20144;-66
2022/05/30 02:17:41;;;;;;;0.20;0.20;;;;;;;;;;5046824;28;20072;-66
2022/05/30 02:20:10;;;;;;;0.20;0.20;;;;;;;;;;5043570;28;20432;-66
2022/05/30 02:22:40;;;;;;;0.10;0.10;;;;;;;;;;5041665;28;20132;-67
2022/05/30 02:25:08;;;;;;;0.10;0.10;;;;;;;;;;5046838;28;20489;-66
2022/05/30 02:27:37;;;;;;;0.25;0.25;;;;;;;;;;5039234;28;20076;-66
2022/05/30 02:30:05;;;;;;;0.10;0.10;;;;;;;;;;5040469;28;20044;-66
2022/05/30 02:32:33;;;;;;;0.10;0.10;;;;;;;;;;5047619;28;20072;-66
2022/05/30 02:37:49;;;;;;;0.10;0.10;;;;;;;;;;5036956;28;20065;-67
2022/05/30 02:40:17;;;;;;;0.40;0.40;;;;;;;;;;5040704;28;20175;-72
2022/05/30 02:42:46;;;;;;;0.10;0.10;;;;;;;;;;5048741;28;20110;-67
2022/05/30 02:45:15;;;;;;;0.30;0.30;;;;;;;;;;5047796;28;20500;-66
2022/05/30 02:47:43;;;;;;;0.10;0.10;;;;;;;;;;5044749;28;20140;-67
2022/05/30 02:50:11;;;;;;;0.17;0.17;;;;;;;;;;5048755;28;20140;-66
2022/05/30 02:52:40;;;;;;;0.40;0.40;;;;;;;;;;5048400;28;20064;-67
2022/05/30 02:55:10;;;;;;;0.10;0.10;;;;;;;;;;5045687;28;20472;-67
2022/05/30 02:57:38;;;;;;;0.10;0.10;;;;;;;;;;5041866;28;20099;-67
2022/05/30 03:00:07;;;;;;;0.10;0.10;;;;;;;;;;5047380;28;20072;-70
2022/05/30 03:02:36;;;;;;;0.10;0.10;;;;;;;;;;5047810;28;20488;-67
2022/05/30 03:05:04;;;;;;;0.10;0.10;;;;;;;;;;5044204;28;20580;-66
2022/05/30 03:07:32;;;;;;;0.10;0.10;;;;;;;;;;5048323;28;20045;-66
2022/05/30 03:10:01;;;;;;;0.20;0.20;;;;;;;;;;5046068;28;20136;-70
2022/05/30 03:12:30;;;;;;;0.20;0.20;;;;;;;;;;5039985;28;20049;-67
2022/05/30 03:14:59;;;;;;;0.00;0.00;;;;;;;;;;5048395;28;20127;-67
2022/05/30 03:17:27;;;;;;;0.00;0.00;;;;;;;;;;5047928;28;20057;-68
2022/05/30 03:19:56;;;;;;;0.10;0.10;;;;;;;;;;5037563;28;20147;-68
2022/05/30 03:22:24;;;;;;;0.10;0.10;;;;;;;;;;5043780;28;20136;-69
2022/05/30 03:24:52;;;;;;;0.10;0.10;;;;;;;;;;5045752;28;20175;-68
2022/05/30 03:27:20;;;;;;;0.10;0.10;;;;;;;;;;5043983;28;20067;-67
2022/05/30 03:29:50;;;;;;;0.10;0.10;;;;;;;;;;5048620;28;20128;-67
2022/05/30 03:32:18;;;;;;;0.30;0.30;;;;;;;;;;5041448;28;20045;-67
2022/05/30 03:34:46;;;;;;;0.10;0.10;;;;;;;;;;5048395;28;20550;-67
2022/05/30 03:37:15;;;;;;;0.20;0.20;;;;;;;;;;5045593;28;20532;-67
2022/05/30 03:39:43;;;;;;;0.30;0.30;;;;;;;;;;5043581;28;20481;-67
2022/05/30 03:42:13;;;;;;;0.20;0.20;;;;;;;;;;5047889;28;20055;-67
2022/05/30 03:44:42;;;;;;;0.75;0.30;;;;;;;;;;5045070;28;20055;-69
2022/05/30 03:47:12;;;;;;;0.60;0.55;;;;;;;;;;5046146;28;20053;-67
2022/05/30 03:49:40;;;;;;;0.10;0.10;;;;;;;;;;5047647;28;20083;-67
2022/05/30 03:52:10;;;;;;;0.15;0.15;;;;;;;;;;5049374;28;20131;-68
2022/05/30 03:54:38;;;;;;;0.10;0.10;;;;;;;;;;5052807;28;20126;-67
2022/05/30 03:57:07;;;;;;;0.40;0.40;;;;;;;;;;5048236;28;20509;-69
2022/05/30 03:59:36;;;;;;;0.10;0.10;;;;;;;;;;5049809;28;20075;-67
2022/05/30 04:02:05;;;;;;;0.10;0.10;;;;;;;;;;5050041;28;20049;-67
2022/05/30 04:04:35;;;;;;;0.32;0.20;;;;;;;;;;5048996;28;20061;-67
2022/05/30 04:07:04;;;;;;;0.10;0.10;;;;;;;;;;5048088;28;20056;-67
2022/05/30 04:09:32;;;;;;;0.17;0.17;;;;;;;;;;5051610;28;20091;-73
2022/05/30 04:12:00;;;;;;;0.10;0.10;;;;;;;;;;5049853;28;20052;-73
2022/05/30 04:14:31;;;;;;;0.10;0.10;;;;;;;;;;5046828;28;20139;-73
2022/05/30 04:16:59;;;;;;;0.15;0.15;;;;;;;;;;5051182;28;20045;-70
2022/05/30 04:19:28;;;;;;;0.20;0.20;;;;;;;;;;5051018;28;20094;-68
2022/05/30 04:21:58;;;;;;;0.10;0.10;;;;;;;;;;5043478;28;20060;-71
2022/05/30 04:24:27;;;;;;;0.35;0.35;;;;;;;;;;5051435;28;20045;-72
2022/05/30 04:26:56;;;;;;;0.10;0.10;;;;;;;;;;5049902;28;20489;-67
2022/05/30 04:29:25;;;;;;;2.20;0.85;;;;;;;;;;5049329;28;20083;-68
2022/05/30 04:31:53;;;;;;;0.10;0.10;;;;;;;;;;5045488;28;20041;-69
2022/05/30 04:34:22;;;;;;;0.28;0.28;;;;;;;;;;5045799;28;20059;-68
2022/05/30 04:36:51;;;;;;;0.13;0.13;;;;;;;;;;5047390;28;20064;-67
2022/05/30 04:39:21;;;;;;;0.10;0.10;;;;;;;;;;5046384;28;20048;-67
2022/05/30 04:41:50;;;;;;;0.10;0.10;;;;;;;;;;5043881;28;20475;-68
2022/05/30 04:44:18;;;;;;;0.10;0.10;;;;;;;;;;5046507;28;20052;-68
2022/05/30 04:46:51;;;;;;;0.52;0.38;;;;;;;;;;5048367;28;20468;-69
2022/05/30 04:49:20;;;;;;;0.10;0.10;;;;;;;;;;5037337;28;20111;-69
2022/05/30 04:51:49;;;;;;;0.10;0.10;;;;;;;;;;5045902;28;20084;-71
2022/05/30 04:54:18;;;;;;;0.10;0.10;;;;;;;;;;5046206;28;20045;-67
2022/05/30 04:56:47;;;;;;;0.10;0.10;;;;;;;;;;5040936;28;20350;-75
2022/05/30 04:59:16;;;;;;;0.10;0.10;;;;;;;;;;5046118;28;20057;-70
2022/05/30 05:01:45;;;;;;;0.10;0.10;;;;;;;;;;5047209;28;20429;-67
2022/05/30 05:04:14;;;;;;;0.10;0.10;;;;;;;;;;5045349;28;20041;-67
2022/05/30 05:06:44;;;;;;;0.10;0.10;;;;;;;;;;5041324;28;20044;-67
2022/05/30 05:09:27;;;;;;;0.15;0.15;;;;;;;;;;5042034;28;20051;-68
2022/05/30 05:11:57;;;;;;;0.25;0.25;;;;;;;;;;5041611;28;20135;-67
2022/05/30 05:14:25;;;;;;;0.10;0.10;;;;;;;;;;5036322;28;20050;-70
2022/05/30 05:16:54;;;;;;;0.20;0.20;;;;;;;;;;5035016;28;20076;-69
2022/05/30 05:19:23;;;;;;;0.10;0.10;;;;;;;;;;5046155;28;20472;-68
2022/05/30 05:21:51;;;;;;;0.20;0.20;;;;;;;;;;5046633;28;20137;-68
2022/05/30 05:24:20;;;;;;;0.10;0.10;;;;;;;;;;5043877;28;20053;-67
2022/05/30 05:26:49;;;;;;;0.17;0.17;;;;;;;;;;5047952;28;20037;-68
2022/05/30 05:29:19;;;;;;;0.20;0.20;;;;;;;;;;5046228;28;20080;-67
2022/05/30 05:31:48;;;;;;;0.10;0.10;;;;;;;;;;5044421;28;20118;-68
2022/05/30 05:34:17;;;;;;;0.03;0.03;;;;;;;;;;5046959;28;20084;-67
2022/05/30 05:36:47;;;;;;;0.40;0.40;;;;;;;;;;5047248;28;20073;-67
2022/05/30 05:39:16;;;;;;;0.10;0.10;;;;;;;;;;5048689;28;20106;-68
2022/05/30 05:41:45;;;;;;;0.20;0.20;;;;;;;;;;5042832;28;20112;-67
2022/05/30 05:44:14;;;;;;;0.10;0.10;;;;;;;;;;5051593;28;20080;-67
2022/05/30 05:46:44;;;;;;;0.45;0.15;;;;;;;;;;5049368;28;20085;-70
2022/05/30 05:49:12;;;;;;;0.20;0.20;;;;;;;;;;5049121;28;20140;-67
2022/05/30 05:51:41;;;;;;;0.30;0.30;;;;;;;;;;5046393;28;20137;-67
2022/05/30 05:54:10;;;;;;;0.10;0.10;;;;;;;;;;5046618;28;20052;-67
2022/05/30 05:56:38;;;;;;;0.22;0.22;;;;;;;;;;5052178;28;20049;-68
2022/05/30 05:59:07;;;;;;;0.43;0.32;;;;;;;;;;5048660;28;20055;-72
2022/05/30 06:01:36;;;;;;;0.20;0.20;;;;;;;;;;5052135;28;20562;-68
2022/05/30 06:04:07;;;;;;;0.38;0.38;;;;;;;;;;5051055;28;20053;-67
2022/05/30 06:06:36;;;;;;;0.10;0.10;;;;;;;;;;5051069;28;20049;-67
2022/05/30 06:09:06;;;;;;;0.08;0.08;;;;;;;;;;5044438;28;20061;-67
2022/05/30 06:11:35;;;;;;;0.50;0.50;;;;;;;;;;5050129;28;20103;-67
2022/05/30 06:14:04;;;;;;;0.35;0.35;;;;;;;;;;5048718;28;20045;-68
2022/05/30 06:16:33;;;;;;;0.38;0.38;;;;;;;;;;5049653;28;20476;-67
2022/05/30 06:19:02;;;;;;;0.20;0.20;;;;;;;;;;5046741;28;20049;-67
2022/05/30 06:21:33;;;;;;;0.25;0.15;;;;;;;;;;5050957;28;20049;-69
2022/05/30 06:24:01;;;;;;;0.13;0.13;;;;;;;;;;5049620;28;20061;-68
2022/05/30 06:26:30;;;;;;;0.10;0.10;;;;;;;;;;5042906;28;20049;-68
2022/05/30 06:28:58;;;;;;;0.00;0.00;;;;;;;;;;5050632;28;20107;-68
2022/05/30 06:31:29;;;;;;;0.20;0.20;;;;;;;;;;5050795;28;20121;-72
2022/05/30 06:33:58;;;;;;;0.10;0.10;;;;;;;;;;5046481;28;20943;-68
2022/05/30 06:36:26;;;;;;;0.10;0.10;;;;;;;;;;5047150;28;20088;-68
2022/05/30 06:38:57;;;;;;;1.80;0.63;;;;;;;;;;5049154;28;20055;-68
2022/05/30 06:41:26;;;;;;;0.10;0.10;;;;;;;;;;5032972;28;20397;-68
2022/05/30 06:43:55;;;;;;;0.20;0.20;;;;;;;;;;5036493;28;20125;-69
2022/05/30 06:46:24;;;;;;;3.60;0.30;;;;;;;;;;5040764;28;21217;-69
2022/05/30 06:48:55;;;;;;;0.38;0.38;;;;;;;;;;5034969;28;20459;-69
2022/05/30 06:51:25;;;;;;;0.30;0.30;;;;;;;;;;5050112;28;20057;-67
2022/05/30 06:53:54;;;;;;;2.33;0.93;;;;;;;;;;5046633;28;20049;-67
2022/05/30 06:56:25;;;;;;;0.30;0.30;;;;;;;;;;5049029;28;20408;-67
2022/05/30 06:58:55;;;;;;;0.10;0.10;;;;;;;;;;5046338;28;20103;-68
2022/05/30 07:01:24;;;;;;;0.20;0.20;;;;;;;;;;5046348;28;20080;-67
2022/05/30 07:03:54;;;;;;;1.02;0.52;;;;;;;;;;5047135;28;20150;-66
2022/05/30 07:06:24;;;;;;;0.95;0.50;;;;;;;;;;5047323;28;20053;-69
2022/05/30 07:08:53;;;;;;;0.32;0.30;;;;;;;;;;5051404;28;20109;-70
2022/05/30 07:11:24;;;;;;;0.15;0.15;;;;;;;;;;5041591;28;20456;-67
2022/05/30 07:13:53;;;;;;;0.20;0.20;;;;;;;;;;5050068;28;20067;-70
2022/05/30 07:16:24;;;;;;;0.38;0.38;;;;;;;;;;5042180;28;20040;-67
2022/05/30 07:18:54;;;;;;;0.10;0.10;;;;;;;;;;5047198;28;20104;-69
2022/05/30 07:21:22;;;;;;;0.10;0.10;;;;;;;;;;5052039;28;20083;-67
2022/05/30 07:23:51;;;;;;;0.32;0.32;;;;;;;;;;5054141;28;20041;-67
2022/05/30 07:26:21;;;;;;;0.10;0.10;;;;;;;;;;5052462;28;20117;-67
2022/05/30 07:28:52;;;;;;;0.80;0.52;;;;;;;;;;5046514;28;20502;-67
2022/05/30 07:31:25;;;;;;;0.30;0.30;;;;;;;;;;5046051;28;20083;-67
2022/05/30 07:33:54;;;;;;;0.30;0.30;;;;;;;;;;5052115;28;20469;-69
2022/05/30 07:36:24;;;;;;;0.63;0.35;;;;;;;;;;5052921;28;20124;-68
2022/05/30 07:38:53;;;;;;;0.43;0.43;;;;;;;;;;5047535;28;20099;-67
2022/05/30 07:41:23;;;;;;;0.50;0.50;;;;;;;;;;5050771;28;20044;-68
2022/05/30 07:43:53;;;;;;;0.50;0.50;;;;;;;;;;5052337;28;20132;-69
2022/05/30 07:46:22;;;;;;;0.20;0.20;;;;;;;;;;5046294;28;20083;-69
2022/05/30 07:48:52;;;;;;;0.70;0.20;;;;;;;;;;5047716;28;20041;-69
2022/05/30 07:51:21;;;;;;;0.10;0.10;;;;;;;;;;5047437;28;20049;-69
2022/05/30 07:53:49;;;;;;;0.10;0.10;;;;;;;;;;5048030;28;20041;-70
2022/05/30 07:56:19;;;;;;;0.65;0.43;;;;;;;;;;5039798;28;20144;-69
2022/05/30 07:58:49;;;;;;;0.10;0.10;;;;;;;;;;5049484;28;20056;-69
2022/05/30 08:01:20;;;;;;;0.20;0.20;;;;;;;;;;5051615;28;20107;-69
2022/05/30 08:03:50;;;;;;;0.20;0.20;;;;;;;;;;5044377;28;20049;-69
2022/05/30 08:06:20;;;;;;;0.22;0.22;;;;;;;;;;5047960;28;20044;-70
2022/05/30 08:08:49;;;;;;;0.00;0.00;;;;;;;;;;5051531;28;20043;-69
2022/05/30 08:11:18;;;;;;;0.20;0.20;;;;;;;;;;5044041;28;20052;-70
2022/05/30 08:13:47;;;;;;;0.28;0.28;;;;;;;;;;5051514;28;20088;-70
2022/05/30 08:16:17;;;;;;;0.30;0.30;;;;;;;;;;5053354;28;20110;-68
2022/05/30 08:19:08;;;;;;;0.38;0.38;;;;;;;;;;5043982;28;20112;-67
2022/05/30 08:22:02;;;;;;;0.10;0.10;;;;;;;;;;5046674;28;20041;-68
2022/05/30 08:24:35;;;;;;;0.65;0.60;;;;;;;;;;5049395;28;20049;-68
2022/05/30 08:27:04;;;;;;;0.17;0.17;;;;;;;;;;5052246;28;20569;-69
2022/05/30 08:29:33;;;;;;;0.10;0.10;;;;;;;;;;5051422;28;20404;-69
2022/05/30 08:32:02;;;;;;;0.20;0.20;;;;;;;;;;5046284;28;20128;-69
2022/05/30 08:34:35;;;;;;;0.40;0.40;;;;;;;;;;5049823;28;20053;-69
2022/05/30 08:37:05;;;;;;;0.22;0.22;;;;;;;;;;5048997;28;20517;-70
2022/05/30 08:42:23;;;;;;;0.63;0.47;;;;;;;;;;5050917;28;20420;-69
2022/05/30 08:44:52;;;;;;;0.30;0.30;;;;;;;;;;5047616;28;20075;-69
2022/05/30 08:47:28;;;;;;;0.57;0.47;;;;;;;;;;5050797;28;20130;-69
2022/05/30 08:50:01;;;;;;;0.32;0.32;;;;;;;;;;5043172;28;20071;-69
2022/05/30 08:52:44;;;;;;;0.25;0.25;;;;;;;;;;5044946;28;20451;-70
2022/05/30 08:55:18;;;;;;;0.20;0.20;;;;;;;;;;5048703;28;20041;-69
2022/05/30 08:57:51;;;;;;;0.60;0.40;;;;;;;;;;5045758;28;20106;-69
2022/05/30 09:00:24;;;;;;;0.20;0.20;;;;;;;;;;5045303;28;20051;-69
2022/05/30 09:02:55;;;;;;;0.20;0.20;;;;;;;;;;5050419;28;20049;-69
2022/05/30 09:05:27;;;;;;;0.10;0.10;;;;;;;;;;5047874;28;20496;-69
2022/05/30 09:08:20;;;;;;;0.20;0.20;;;;;;;;;;5048236;28;20049;-69
2022/05/30 09:10:54;;;;;;;2.15;0.75;;;;;;;;;;5051095;28;20044;-70
2022/05/30 09:13:26;;;;;;;0.55;0.50;;;;;;;;;;5048286;28;20048;-69
2022/05/30 09:16:00;;;;;;;0.52;0.30;;;;;;;;;;5041832;28;20132;-70
2022/05/30 09:18:33;;;;;;;0.38;0.35;;;;;;;;;;5047611;28;21183;-70
2022/05/30 09:21:05;;;;;;;0.30;0.30;;;;;;;;;;5046994;28;20049;-71
2022/05/30 09:23:34;;;;;;;0.15;0.15;;;;;;;;;;5041416;28;20570;-71
2022/05/30 09:26:07;;;;;;;0.40;0.40;;;;;;;;;;5026358;28;20049;-70
2022/05/30 09:28:36;;;;;;;0.57;0.40;;;;;;;;;;5041544;28;20059;-70
2022/05/30 09:31:15;;;;;;;0.30;0.30;;;;;;;;;;5045694;28;20071;-71
2022/05/30 09:33:45;;;;;;;0.50;0.50;;;;;;;;;;5047250;28;20115;-70
2022/05/30 09:36:17;;;;;;;0.35;0.35;;;;;;;;;;5049125;28;20037;-70
2022/05/30 09:38:48;;;;;;;0.20;0.20;;;;;;;;;;5045455;28;20045;-70
2022/05/30 09:41:19;;;;;;;0.40;0.38;;;;;;;;;;5045938;28;20398;-71
2022/05/30 09:43:49;;;;;;;0.43;0.30;;;;;;;;;;5052099;28;20110;-70
2022/05/30 09:46:21;;;;;;;0.45;0.38;;;;;;;;;;5046742;28;20045;-70
2022/05/30 09:49:01;;;;;;;0.35;0.35;;;;;;;;;;5043594;28;20046;-67
2022/05/30 09:51:36;;;;;;;0.10;0.10;;;;;;;;;;5046218;28;20056;-71
2022/05/30 09:54:04;;;;;;;;;;;;;;;;;;5051741;28;20051;-71
2022/05/30 09:56:35;;;;;;;0.17;0.17;;;;;;;;;;5046930;28;19928;-70
2022/05/30 09:59:05;;;;;;;0.20;0.20;;;;;;;;;;5044580;28;20064;-71
2022/05/30 10:01:36;;;;;;;1.48;0.63;;;;;;;;;;5047613;28;20072;-71
2022/05/30 10:04:15;;;;;;;0.50;0.50;;;;;;;;;;5053107;28;20053;-71
2022/05/30 10:07:01;;;;;;;0.35;0.35;;;;;;;;;;5046229;28;20110;-72
2022/05/30 10:09:30;;;;;;;0.22;0.22;;;;;;;;;;5024739;28;20045;-71
2022/05/30 10:11:59;;;;;;;0.50;0.20;;;;;;;;;;5047491;28;20049;-71
2022/05/30 10:14:32;;;;;;;0.60;0.50;;;;;;;;;;5049862;28;20063;-71
2022/05/30 10:17:11;;;;;;;0.10;0.10;;;;;;;;;;5045263;28;20453;-71
2022/05/30 10:19:42;;;;;;;0.20;0.20;;;;;;;;;;5047876;28;20480;-73
2022/05/30 10:28:16;;;;;;;0.17;0.17;;;;;;;;;;5043541;28;20381;-71
2022/05/30 10:30:51;;;;;;;0.20;0.20;;;;;;;;;;5040869;28;20041;-72
2022/05/30 10:33:26;;;;;;;0.37;0.37;;;;;;;;;;5045818;28;20292;-72
2022/05/30 10:35:58;;;;;;;0.30;0.30;;;;;;;;;;5047521;28;20041;-71
2022/05/30 10:38:35;;;;;;;0.50;0.50;;;;;;;;;;5040617;28;20049;-71
2022/05/30 10:41:08;;;;;;;0.20;0.20;;;;;;;;;;5045537;28;20057;-71
2022/05/30 10:43:43;;;;;;;0.20;0.20;;;;;;;;;;5046573;28;20056;-72
2022/05/30 10:46:15;;;;;;;0.25;0.25;;;;;;;;;;5037470;28;20084;-71
2022/05/30 10:48:48;;;;;;;0.98;0.15;;;;;;;;;;5046018;28;20056;-71
2022/05/30 10:51:17;;;;;;;0.08;0.08;;;;;;;;;;5047029;28;21475;-71
2022/05/30 10:53:50;;;;;;;0.20;0.20;;;;;;;;;;5046825;28;20048;-71
2022/05/30 10:56:19;;;;;;;0.43;0.35;;;;;;;;;;5043335;28;20086;-72
2022/05/30 10:58:52;;;;;;;0.63;0.55;;;;;;;;;;5043230;28;20124;-71
2022/05/30 11:01:30;;;;;;;2.28;0.30;;;;;;;;;;5042231;28;20470;-71
2022/05/30 11:04:08;;;;;;;0.10;0.10;;;;;;;;;;5040240;28;20492;-71
2022/05/30 11:06:39;;;;;;;0.63;0.20;;;;;;;;;;5036078;28;20049;-71
2022/05/30 11:09:12;;;;;;;0.45;0.45;;;;;;;;;;5041393;28;20495;-72
2022/05/30 11:11:43;;;;;;;0.88;0.50;;;;;;;;;;5043891;28;20468;-71
2022/05/30 11:14:14;;;;;;;0.20;0.20;;;;;;;;;;5046807;28;20048;-71
2022/05/30 11:16:46;;;;;;;0.20;0.20;;;;;;;;;;5044413;28;20126;-71
2022/05/30 11:19:17;;;;;;;0.10;0.10;;;;;;;;;;5043052;28;20063;-70
2022/05/30 11:21:48;;;;;;;0.40;0.28;;;;;;;;;;5048125;28;20049;-71
2022/05/30 11:24:18;;;;;;;1.10;0.52;;;;;;;;;;5045776;28;20132;-71
2022/05/30 11:27:05;;;;;;;0.20;0.20;;;;;;;;;;5045524;28;20419;-71
2022/05/30 11:29:45;;;;;;;0.13;0.13;;;;;;;;;;5042408;28;20496;-71
2022/05/30 11:32:22;;;;;;;2.67;0.40;;;;;;;;;;5044092;28;20499;-71
2022/05/30 11:34:56;;;;;;;0.10;0.10;;;;;;;;;;5045052;28;20806;-70
2022/05/30 11:37:35;;;;;;;0.17;0.17;;;;;;;;;;5043200;28;20099;-70
2022/05/30 11:40:14;;;;;;;1.65;0.20;;;;;;;;;;5039864;28;20076;-70
2022/05/30 11:42:48;;;;;;;0.85;0.20;;;;;;;;;;5045388;28;20057;-72
2022/05/30 11:45:24;;;;;;;0.30;0.30;;;;;;;;;;5037326;28;20064;-72
2022/05/30 11:47:56;;;;;;;0.30;0.30;;;;;;;;;;5040541;28;20044;-71
2022/05/30 11:50:27;;;;;;;0.20;0.20;;;;;;;;;;5040598;28;20456;-71
2022/05/30 11:53:07;;;;;;;0.75;0.45;;;;;;;;;;5031056;28;20045;-71
2022/05/30 11:55:41;;;;;;;0.17;0.17;;;;;;;;;;5034350;28;20175;-71
2022/05/30 11:58:12;;;;;;;0.73;0.40;;;;;;;;;;5036891;28;20192;-71
2022/05/30 12:00:45;;;;;;;0.20;0.20;;;;;;;;;;5035802;28;20113;-71
2022/05/30 12:03:45;;;;;;;0.10;0.10;;;;;;;;;;5032209;28;20045;-71
2022/05/30 12:06:34;;;;;;;0.10;0.10;;;;;;;;;;5033416;28;20049;-71
2022/05/30 12:09:19;;;;;;;0.38;0.38;;;;;;;;;;5039900;28;20528;-71
2022/05/30 12:12:02;;;;;;;1.27;0.28;;;;;;;;;;5039747;28;20076;-71
2022/05/30 12:14:54;;;;;;;0.20;0.20;;;;;;;;;;5038551;28;20057;-72
2022/05/30 12:17:36;;;;;;;0.75;0.20;;;;;;;;;;5036797;28;20536;-71
2022/05/30 12:25:48;;;;;;;0.20;0.20;;;;;;;;;;5040947;28;20049;-71
2022/05/30 12:28:37;;;;;;;0.35;0.35;;;;;;;;;;5048394;28;20053;-71
2022/05/30 12:31:10;;;;;;;1.00;0.52;;;;;;;;;;5021913;28;20056;-71
2022/05/30 12:33:50;;;;;;;0.73;0.43;;;;;;;;;;5040912;28;20128;-71
2022/05/30 12:36:31;;;;;;;0.10;0.10;;;;;;;;;;5039574;28;20643;-71
2022/05/30 12:39:01;;;;;;;0.93;0.30;;;;;;;;;;5041506;28;20049;-71
2022/05/30 12:41:31;;;;;;;0.20;0.20;;;;;;;;;;5041425;28;20057;-70
2022/05/30 12:44:00;;;;;;;0.10;0.08;;;;;;;;;;5036593;28;20566;-71
2022/05/30 12:46:31;;;;;;;0.10;0.10;;;;;;;;;;5041755;28;20045;-72
2022/05/30 12:49:06;;;;;;;0.47;0.40;;;;;;;;;;5043875;28;20395;-71
2022/05/30 12:51:49;;;;;;;0.10;0.10;;;;;;;;;;5041180;28;20052;-70
2022/05/30 12:54:24;;;;;;;0.10;0.10;;;;;;;;;;5043306;28;20053;-70
2022/05/30 12:57:19;;;;;;;0.30;0.30;;;;;;;;;;5046149;28;20575;-71
2022/05/30 13:00:00;;;;;;;0.10;0.10;;;;;;;;;;5048873;28;20555;-70
2022/05/30 13:02:46;;;;;;;0.77;0.32;;;;;;;;;;5048119;28;20052;-72
2022/05/30 13:05:18;;;;;;;0.32;0.32;;;;;;;;;;5043071;28;20707;-71
2022/05/30 13:07:47;;;;;;;0.10;0.10;;;;;;;;;;5035618;28;20049;-72
2022/05/30 13:10:16;;;;;;;0.15;0.15;;;;;;;;;;5048821;28;20044;-70
2022/05/30 13:12:57;;;;;;;0.20;0.20;;;;;;;;;;5039990;28;20045;-70
2022/05/30 13:15:29;;;;;;;0.38;0.30;;;;;;;;;;5040147;28;20128;-71
2022/05/30 13:18:05;;;;;;;0.40;0.40;;;;;;;;;;5038470;28;20527;-70
2022/05/30 13:20:43;;;;;;;0.03;0.03;;;;;;;;;;5046449;28;20535;-70
2022/05/30 13:23:15;;;;;;;0.20;0.20;;;;;;;;;;5042519;28;20123;-71
2022/05/30 13:25:46;;;;;;;0.35;0.20;;;;;;;;;;5040133;28;20048;-70
2022/05/30 13:28:21;;;;;;;0.10;0.10;;;;;;;;;;5037275;28;20572;-70
2022/05/30 13:30:50;;;;;;;;;;;;;;;;;;5040728;28;20461;-69
2022/05/30 13:33:24;;;;;;;0.52;0.52;;;;;;;;;;5043111;28;19956;-70
2022/05/30 13:35:54;;;;;;;0.25;0.25;;;;;;;;;;5041839;28;20471;-70
2022/05/30 13:38:27;;;;;;;0.10;0.10;;;;;;;;;;5040426;28;20050;-70
2022/05/30 13:40:55;;;;;;;0.20;0.15;;;;;;;;;;5045777;28;20435;-70
2022/05/30 13:43:33;;;;;;;0.15;0.15;;;;;;;;;;5038934;28;20682;-70
2022/05/30 13:46:24;;;;;;;0.20;0.20;;;;;;;;;;5043157;28;20535;-70
2022/05/30 13:48:55;;;;;;;0.45;0.20;;;;;;;;;;5046965;28;20135;-69
2022/05/30 13:51:27;;;;;;;0.30;0.30;;;;;;;;;;5047777;28;20114;-69
2022/05/30 13:53:57;;;;;;;0.30;0.30;;;;;;;;;;5050702;28;20099;-70
2022/05/30 13:56:26;;;;;;;0.75;0.30;;;;;;;;;;5047253;28;20075;-72
2022/05/30 13:58:56;;;;;;;0.32;0.30;;;;;;;;;;5047251;28;20136;-70
2022/05/30 14:01:26;;;;;;;0.10;0.10;;;;;;;;;;5032947;28;20382;-71
2022/05/30 14:04:00;;;;;;;0.22;0.20;;;;;;;;;;5045757;28;20382;-69
2022/05/30 14:06:33;;;;;;;0.40;0.30;;;;;;;;;;5038270;28;20394;-70
2022/05/30 14:09:03;;;;;;;0.20;0.15;;;;;;;;;;5038283;28;20075;-69
2022/05/30 14:11:34;;;;;;;0.52;0.20;;;;;;;;;;5049603;28;20041;-70
2022/05/30 14:14:04;;;;;;;0.38;0.38;;;;;;;;;;5044904;28;20106;-69
2022/05/30 14:16:35;;;;;;;0.90;0.40;;;;;;;;;;5043894;28;20049;-72
2022/05/30 14:19:07;;;;;;;1.00;0.38;;;;;;;;;;5048311;28;20041;-70
2022/05/30 14:21:37;;;;;;;0.28;0.28;;;;;;;;;;5041488;28;20501;-72
2022/05/30 14:24:16;;;;;;;0.57;0.25;;;;;;;;;;5040879;28;20069;-69
2022/05/30 14:26:46;;;;;;;0.10;0.10;;;;;;;;;;5051679;28;20103;-69
2022/05/30 14:29:25;;;;;;;0.17;0.17;;;;;;;;;;5049975;28;20045;-69
2022/05/30 14:32:08;;;;;;;1.25;0.60;;;;;;;;;;5049772;28;20080;-69
2022/05/30 14:34:39;;;;;;;1.30;0.40;;;;;;;;;;5047386;28;20059;-70
2022/05/30 14:37:22;;;;;;;0.30;0.30;;;;;;;;;;5048483;28;20076;-70
2022/05/30 14:39:52;;;;;;;0.25;0.25;;;;;;;;;;5040532;28;20132;-69
2022/05/30 14:42:22;;;;;;;0.30;0.30;;;;;;;;;;5046707;28;20075;-70
2022/05/30 14:44:54;;;;;;;0.17;0.17;;;;;;;;;;5043118;28;20049;-69
2022/05/30 14:47:28;;;;;;;0.10;0.10;;;;;;;;;;5038952;28;20041;-72
2022/05/30 14:50:00;;;;;;;0.28;0.28;;;;;;;;;;5047080;28;20149;-70
2022/05/30 14:52:33;;;;;;;0.50;0.50;;;;;;;;;;5048081;28;20412;-69
2022/05/30 14:55:05;;;;;;;0.10;0.10;;;;;;;;;;5045982;28;20041;-69
2022/05/30 14:57:33;;;;;;;0.43;0.30;;;;;;;;;;5043590;28;20481;-70
2022/05/30 15:00:17;;;;;;;0.63;0.47;;;;;;;;;;5049252;28;20404;-69
2022/05/30 15:05:34;;;;;;;0.30;0.30;;;;;;;;;;5044907;28;20060;-69
2022/05/30 15:08:03;;;;;;;0.10;0.10;;;;;;;;;;5035858;28;20144;-73
2022/05/30 15:10:32;;;;;;;0.35;0.15;;;;;;;;;;5046703;28;20408;-72
2022/05/30 15:13:01;;;;;;;0.45;0.30;;;;;;;;;;5044541;28;20045;-68
2022/05/30 15:15:30;;;;;;;0.52;0.50;;;;;;;;;;5049304;28;20056;-69
2022/05/30 15:17:58;;;;;;;0.28;0.28;;;;;;;;;;5047188;28;20049;-69
2022/05/30 15:20:27;;;;;;;0.10;0.10;;;;;;;;;;5048230;28;20045;-73
2022/05/30 15:22:58;;;;;;;0.50;0.50;;;;;;;;;;5043018;28;20064;-69
2022/05/30 15:25:29;;;;;;;0.20;0.20;;;;;;;;;;5049437;28;20122;-70
2022/05/30 15:27:58;;;;;;;0.20;0.10;;;;;;;;;;5046603;28;20049;-69
2022/05/30 15:30:28;;;;;;;0.10;0.10;;;;;;;;;;5042051;28;20067;-70
2022/05/30 15:32:56;;;;;;;0.20;0.20;;;;;;;;;;5045016;28;20415;-71